Weather at Gallia Meigs Regional Airport

Public forecast

Using degrees Fahrenheit for public forecast. Weather courtesy of forecast.io.

Closest aviation weather report (METAR) to Gallia Meigs Regional Airport

Closest report is Mason County Airport, 5.7 nm (10.6 km) NNE. Retrieved 2020/11/24 17:35 UTC (3 minutes ago):

K3I2 241735Z AUTO 06004KT 10SM CLR 08/01 A3033 RMK AO2 T00780006

Closest aviation forecast (TAF) to Gallia Meigs Regional Airport

Closest forecast is Tri-State/Milton J. Ferguson Field, 33.6 nm (62.3 km) SSW. Retrieved 2020/11/24 12:42 UTC (5 hours ago):

TAF KHTS 241141Z 2412/2512 VRB03KT P6SM BKN100 FM241600 09004KT P6SM BKN090 FM242300 VRB03KT P6SM BKN200